sensor_id;sensor_type;location;lat;lon;timestamp;pressure;altitude;pressure_sealevel;temperature;humidity
75585;BME280;64162;53.508;10.476;2024-01-30T00:00:42;102362.41;;;8.31;60.27
75585;BME280;64162;53.508;10.476;2024-01-30T00:03:08;102355.00;;;8.39;59.86
75585;BME280;64162;53.508;10.476;2024-01-30T00:05:35;102350.97;;;8.35;59.46
75585;BME280;64162;53.508;10.476;2024-01-30T00:08:02;102360.03;;;8.53;58.67
75585;BME280;64162;53.508;10.476;2024-01-30T00:10:28;102342.81;;;8.53;58.77
75585;BME280;64162;53.508;10.476;2024-01-30T00:12:55;102358.59;;;8.74;58.49
75585;BME280;64162;53.508;10.476;2024-01-30T00:15:21;102356.22;;;8.46;59.33
75585;BME280;64162;53.508;10.476;2024-01-30T00:17:48;102348.44;;;8.71;58.61
75585;BME280;64162;53.508;10.476;2024-01-30T00:20:15;102348.69;;;8.68;58.60
75585;BME280;64162;53.508;10.476;2024-01-30T00:22:42;102354.03;;;8.65;58.54
75585;BME280;64162;53.508;10.476;2024-01-30T00:25:08;102351.34;;;8.79;57.98
75585;BME280;64162;53.508;10.476;2024-01-30T00:27:35;102339.56;;;8.88;57.88
75585;BME280;64162;53.508;10.476;2024-01-30T00:30:02;102338.75;;;8.62;58.68
75585;BME280;64162;53.508;10.476;2024-01-30T00:32:29;102342.91;;;8.52;58.68
75585;BME280;64162;53.508;10.476;2024-01-30T00:34:55;102333.38;;;8.65;58.44
75585;BME280;64162;53.508;10.476;2024-01-30T00:37:23;102343.09;;;8.61;58.88
75585;BME280;64162;53.508;10.476;2024-01-30T00:39:49;102331.53;;;8.80;58.18
75585;BME280;64162;53.508;10.476;2024-01-30T00:42:16;102333.19;;;8.55;58.75
75585;BME280;64162;53.508;10.476;2024-01-30T00:44:43;102332.25;;;8.56;58.81
75585;BME280;64162;53.508;10.476;2024-01-30T00:47:09;102341.78;;;8.43;59.47
75585;BME280;64162;53.508;10.476;2024-01-30T00:49:36;102327.72;;;8.60;59.19
75585;BME280;64162;53.508;10.476;2024-01-30T00:52:02;102327.00;;;8.58;58.75
75585;BME280;64162;53.508;10.476;2024-01-30T00:54:29;102337.09;;;8.36;59.78
75585;BME280;64162;53.508;10.476;2024-01-30T00:56:56;102338.44;;;8.29;59.87
75585;BME280;64162;53.508;10.476;2024-01-30T00:59:23;102327.00;;;8.33;59.64
75585;BME280;64162;53.508;10.476;2024-01-30T01:01:49;102329.44;;;8.22;60.20
75585;BME280;64162;53.508;10.476;2024-01-30T01:04:16;102328.59;;;8.08;59.84
75585;BME280;64162;53.508;10.476;2024-01-30T01:06:44;102324.94;;;8.38;59.50
75585;BME280;64162;53.508;10.476;2024-01-30T01:09:11;102328.56;;;7.83;60.87
75585;BME280;64162;53.508;10.476;2024-01-30T01:11:38;102337.69;;;8.27;59.21
75585;BME280;64162;53.508;10.476;2024-01-30T01:14:05;102329.00;;;8.15;59.66
75585;BME280;64162;53.508;10.476;2024-01-30T01:16:32;102341.00;;;8.29;60.17
75585;BME280;64162;53.508;10.476;2024-01-30T01:18:59;102318.75;;;8.53;58.44
75585;BME280;64162;53.508;10.476;2024-01-30T01:21:26;102330.53;;;8.44;58.52
75585;BME280;64162;53.508;10.476;2024-01-30T01:23:53;102334.38;;;7.99;60.50
75585;BME280;64162;53.508;10.476;2024-01-30T01:26:20;102324.94;;;7.86;62.07
75585;BME280;64162;53.508;10.476;2024-01-30T01:28:48;102331.19;;;8.08;60.63
75585;BME280;64162;53.508;10.476;2024-01-30T01:31:14;102330.28;;;8.09;61.10
75585;BME280;64162;53.508;10.476;2024-01-30T01:33:41;102326.09;;;7.55;62.65
75585;BME280;64162;53.508;10.476;2024-01-30T01:36:08;102322.63;;;8.20;61.14
75585;BME280;64162;53.508;10.476;2024-01-30T01:38:34;102334.94;;;7.90;61.54
75585;BME280;64162;53.508;10.476;2024-01-30T01:41:01;102334.25;;;7.88;61.85
75585;BME280;64162;53.508;10.476;2024-01-30T01:43:27;102339.75;;;8.22;60.48
75585;BME280;64162;53.508;10.476;2024-01-30T01:45:54;102324.78;;;8.01;61.40
75585;BME280;64162;53.508;10.476;2024-01-30T01:48:20;102325.69;;;7.88;62.44
75585;BME280;64162;53.508;10.476;2024-01-30T01:50:47;102316.91;;;7.90;62.01
75585;BME280;64162;53.508;10.476;2024-01-30T01:53:15;102314.69;;;8.24;61.40
75585;BME280;64162;53.508;10.476;2024-01-30T01:55:42;102304.34;;;7.98;62.34
75585;BME280;64162;53.508;10.476;2024-01-30T01:58:09;102303.22;;;8.02;61.67
75585;BME280;64162;53.508;10.476;2024-01-30T02:00:36;102313.34;;;8.31;61.07
75585;BME280;64162;53.508;10.476;2024-01-30T02:03:06;102294.50;;;7.78;61.91
75585;BME280;64162;53.508;10.476;2024-01-30T02:05:34;102295.19;;;8.19;61.11
75585;BME280;64162;53.508;10.476;2024-01-30T02:08:01;102294.72;;;7.88;62.39
75585;BME280;64162;53.508;10.476;2024-01-30T02:10:28;102300.44;;;8.18;61.16
75585;BME280;64162;53.508;10.476;2024-01-30T02:12:54;102299.72;;;8.03;61.52
75585;BME280;64162;53.508;10.476;2024-01-30T02:15:21;102306.56;;;8.30;61.06
75585;BME280;64162;53.508;10.476;2024-01-30T02:17:47;102294.44;;;7.92;61.92
75585;BME280;64162;53.508;10.476;2024-01-30T02:20:14;102292.13;;;7.75;62.19
75585;BME280;64162;53.508;10.476;2024-01-30T02:22:41;102295.06;;;7.56;63.12
75585;BME280;64162;53.508;10.476;2024-01-30T02:25:09;102283.19;;;7.93;61.74
75585;BME280;64162;53.508;10.476;2024-01-30T02:27:35;102285.81;;;7.66;62.90
75585;BME280;64162;53.508;10.476;2024-01-30T02:30:02;102293.19;;;8.10;61.92
75585;BME280;64162;53.508;10.476;2024-01-30T02:32:29;102294.44;;;7.53;63.63
75585;BME280;64162;53.508;10.476;2024-01-30T02:34:56;102293.38;;;7.43;64.18
75585;BME280;64162;53.508;10.476;2024-01-30T02:37:22;102293.81;;;7.49;63.67
75585;BME280;64162;53.508;10.476;2024-01-30T02:39:49;102287.13;;;7.99;62.14
75585;BME280;64162;53.508;10.476;2024-01-30T02:42:15;102292.28;;;8.11;62.18
75585;BME280;64162;53.508;10.476;2024-01-30T02:44:42;102272.47;;;8.25;61.50
75585;BME280;64162;53.508;10.476;2024-01-30T02:47:08;102279.72;;;8.19;61.25
75585;BME280;64162;53.508;10.476;2024-01-30T02:49:35;102288.09;;;7.71;62.04
75585;BME280;64162;53.508;10.476;2024-01-30T02:52:02;102293.81;;;8.01;61.81
75585;BME280;64162;53.508;10.476;2024-01-30T02:54:29;102291.56;;;8.09;61.49
75585;BME280;64162;53.508;10.476;2024-01-30T02:56:57;102285.38;;;8.25;60.57
75585;BME280;64162;53.508;10.476;2024-01-30T02:59:24;102278.56;;;8.49;60.12
75585;BME280;64162;53.508;10.476;2024-01-30T03:01:50;102281.44;;;7.94;61.40
75585;BME280;64162;53.508;10.476;2024-01-30T03:04:17;102279.91;;;8.04;61.57
75585;BME280;64162;53.508;10.476;2024-01-30T03:06:46;102269.16;;;7.97;62.13
75585;BME280;64162;53.508;10.476;2024-01-30T03:09:16;102269.56;;;8.16;61.64
75585;BME280;64162;53.508;10.476;2024-01-30T03:11:43;102263.16;;;8.22;60.70
75585;BME280;64162;53.508;10.476;2024-01-30T03:14:09;102251.91;;;7.85;62.32
75585;BME280;64162;53.508;10.476;2024-01-30T03:16:39;102247.91;;;8.06;61.63
75585;BME280;64162;53.508;10.476;2024-01-30T03:19:06;102249.66;;;8.06;61.67
75585;BME280;64162;53.508;10.476;2024-01-30T03:21:35;102255.31;;;8.61;59.94
75585;BME280;64162;53.508;10.476;2024-01-30T03:24:02;102255.44;;;8.60;60.01
75585;BME280;64162;53.508;10.476;2024-01-30T03:26:28;102257.94;;;8.36;60.43
75585;BME280;64162;53.508;10.476;2024-01-30T03:28:55;102257.28;;;8.07;61.39
75585;BME280;64162;53.508;10.476;2024-01-30T03:31:21;102252.03;;;7.84;63.69
75585;BME280;64162;53.508;10.476;2024-01-30T03:33:48;102248.94;;;8.42;61.10
75585;BME280;64162;53.508;10.476;2024-01-30T03:36:15;102245.72;;;8.51;61.40
75585;BME280;64162;53.508;10.476;2024-01-30T03:38:42;102246.88;;;8.47;61.37
75585;BME280;64162;53.508;10.476;2024-01-30T03:41:09;102241.19;;;8.54;61.64
75585;BME280;64162;53.508;10.476;2024-01-30T03:43:36;102238.03;;;8.75;60.59
75585;BME280;64162;53.508;10.476;2024-01-30T03:46:03;102240.22;;;8.55;61.05
75585;BME280;64162;53.508;10.476;2024-01-30T03:48:30;102237.06;;;8.88;60.03
75585;BME280;64162;53.508;10.476;2024-01-30T03:50:57;102227.97;;;8.59;60.93
75585;BME280;64162;53.508;10.476;2024-01-30T03:53:23;102235.31;;;8.02;62.91
75585;BME280;64162;53.508;10.476;2024-01-30T03:55:50;102243.34;;;8.10;63.06
75585;BME280;64162;53.508;10.476;2024-01-30T03:58:16;102246.25;;;8.18;63.12
75585;BME280;64162;53.508;10.476;2024-01-30T04:00:43;102244.69;;;7.78;64.51
75585;BME280;64162;53.508;10.476;2024-01-30T04:03:10;102230.38;;;8.37;62.98
75585;BME280;64162;53.508;10.476;2024-01-30T04:05:36;102232.81;;;8.26;63.48
75585;BME280;64162;53.508;10.476;2024-01-30T04:08:03;102229.66;;;8.71;62.00
75585;BME280;64162;53.508;10.476;2024-01-30T04:10:30;102245.66;;;8.40;63.13
75585;BME280;64162;53.508;10.476;2024-01-30T04:12:56;102232.06;;;8.74;61.65
75585;BME280;64162;53.508;10.476;2024-01-30T04:15:23;102230.28;;;8.75;61.54
75585;BME280;64162;53.508;10.476;2024-01-30T04:17:49;102239.06;;;8.72;61.31
75585;BME280;64162;53.508;10.476;2024-01-30T04:20:16;102235.56;;;8.73;61.80
75585;BME280;64162;53.508;10.476;2024-01-30T04:22:44;102232.97;;;8.73;62.02
75585;BME280;64162;53.508;10.476;2024-01-30T04:25:12;102229.53;;;8.49;63.08
75585;BME280;64162;53.508;10.476;2024-01-30T04:27:39;102233.91;;;8.72;62.06
75585;BME280;64162;53.508;10.476;2024-01-30T04:30:06;102245.44;;;8.43;63.47
75585;BME280;64162;53.508;10.476;2024-01-30T04:32:32;102224.88;;;8.54;63.57
75585;BME280;64162;53.508;10.476;2024-01-30T04:34:59;102232.63;;;8.41;62.45
75585;BME280;64162;53.508;10.476;2024-01-30T04:37:26;102234.97;;;8.57;61.99
75585;BME280;64162;53.508;10.476;2024-01-30T04:39:52;102235.97;;;8.67;62.81
75585;BME280;64162;53.508;10.476;2024-01-30T04:42:19;102232.81;;;8.64;62.92
75585;BME280;64162;53.508;10.476;2024-01-30T04:44:46;102240.50;;;8.76;61.79
75585;BME280;64162;53.508;10.476;2024-01-30T04:47:12;102233.97;;;8.83;62.27
75585;BME280;64162;53.508;10.476;2024-01-30T04:49:39;102246.78;;;8.36;63.68
75585;BME280;64162;53.508;10.476;2024-01-30T04:52:08;102247.72;;;8.84;62.64
75585;BME280;64162;53.508;10.476;2024-01-30T04:54:35;102234.28;;;8.55;62.83
75585;BME280;64162;53.508;10.476;2024-01-30T04:57:02;102242.41;;;8.98;62.01
75585;BME280;64162;53.508;10.476;2024-01-30T04:59:29;102236.75;;;8.80;62.25
75585;BME280;64162;53.508;10.476;2024-01-30T05:01:55;102246.00;;;8.95;62.04
75585;BME280;64162;53.508;10.476;2024-01-30T05:04:22;102243.94;;;8.64;62.88
75585;BME280;64162;53.508;10.476;2024-01-30T05:06:49;102239.06;;;8.96;61.70
75585;BME280;64162;53.508;10.476;2024-01-30T05:09:16;102233.75;;;8.86;61.83
75585;BME280;64162;53.508;10.476;2024-01-30T05:11:42;102248.94;;;8.42;63.05
75585;BME280;64162;53.508;10.476;2024-01-30T05:14:09;102250.31;;;8.71;62.41
75585;BME280;64162;53.508;10.476;2024-01-30T05:16:37;102243.56;;;8.81;62.19
75585;BME280;64162;53.508;10.476;2024-01-30T05:19:03;102246.50;;;9.00;61.16
75585;BME280;64162;53.508;10.476;2024-01-30T05:21:30;102243.66;;;8.92;61.45
75585;BME280;64162;53.508;10.476;2024-01-30T05:23:57;102232.50;;;8.92;61.55
75585;BME280;64162;53.508;10.476;2024-01-30T05:26:23;102231.16;;;8.86;62.19
75585;BME280;64162;53.508;10.476;2024-01-30T05:28:50;102223.28;;;8.64;62.22
75585;BME280;64162;53.508;10.476;2024-01-30T05:31:16;102224.72;;;8.68;62.63
75585;BME280;64162;53.508;10.476;2024-01-30T05:33:43;102228.97;;;8.69;62.59
75585;BME280;64162;53.508;10.476;2024-01-30T05:36:12;102230.97;;;8.89;62.32
75585;BME280;64162;53.508;10.476;2024-01-30T05:38:39;102209.34;;;8.90;62.26
75585;BME280;64162;53.508;10.476;2024-01-30T05:41:06;102207.44;;;9.05;61.35
75585;BME280;64162;53.508;10.476;2024-01-30T05:43:32;102224.72;;;9.16;61.63
75585;BME280;64162;53.508;10.476;2024-01-30T05:45:59;102222.16;;;8.68;62.58
75585;BME280;64162;53.508;10.476;2024-01-30T05:48:26;102223.03;;;8.80;62.02
75585;BME280;64162;53.508;10.476;2024-01-30T05:50:52;102222.56;;;8.98;61.67
75585;BME280;64162;53.508;10.476;2024-01-30T05:53:19;102207.75;;;9.00;61.63
75585;BME280;64162;53.508;10.476;2024-01-30T05:55:46;102201.97;;;8.49;63.75
75585;BME280;64162;53.508;10.476;2024-01-30T05:58:13;102208.47;;;8.79;62.83
75585;BME280;64162;53.508;10.476;2024-01-30T06:00:39;102204.38;;;9.00;62.34
75585;BME280;64162;53.508;10.476;2024-01-30T06:03:06;102204.47;;;8.98;62.41
75585;BME280;64162;53.508;10.476;2024-01-30T06:05:32;102216.28;;;8.90;61.63
75585;BME280;64162;53.508;10.476;2024-01-30T06:07:59;102222.16;;;9.16;61.76
75585;BME280;64162;53.508;10.476;2024-01-30T06:10:26;102212.16;;;9.11;61.56
75585;BME280;64162;53.508;10.476;2024-01-30T06:12:52;102217.00;;;8.92;62.31
75585;BME280;64162;53.508;10.476;2024-01-30T06:15:19;102205.63;;;8.94;62.23
75585;BME280;64162;53.508;10.476;2024-01-30T06:17:45;102217.22;;;9.13;61.62
75585;BME280;64162;53.508;10.476;2024-01-30T06:20:12;102214.06;;;8.96;61.81
75585;BME280;64162;53.508;10.476;2024-01-30T06:22:38;102209.53;;;9.00;61.94
75585;BME280;64162;53.508;10.476;2024-01-30T06:25:05;102207.59;;;9.15;61.18
75585;BME280;64162;53.508;10.476;2024-01-30T06:27:32;102196.66;;;8.87;62.47
75585;BME280;64162;53.508;10.476;2024-01-30T06:29:58;102196.16;;;8.58;63.52
75585;BME280;64162;53.508;10.476;2024-01-30T06:32:25;102189.22;;;8.59;63.83
75585;BME280;64162;53.508;10.476;2024-01-30T06:34:52;102187.16;;;8.88;62.75
75585;BME280;64162;53.508;10.476;2024-01-30T06:37:18;102180.97;;;8.54;63.40
75585;BME280;64162;53.508;10.476;2024-01-30T06:39:45;102190.50;;;9.01;61.87
75585;BME280;64162;53.508;10.476;2024-01-30T06:42:11;102187.00;;;8.78;63.30
75585;BME280;64162;53.508;10.476;2024-01-30T06:44:38;102165.44;;;8.90;63.01
75585;BME280;64162;53.508;10.476;2024-01-30T06:47:05;102168.47;;;8.84;62.34
75585;BME280;64162;53.508;10.476;2024-01-30T06:49:31;102173.75;;;8.59;63.81
75585;BME280;64162;53.508;10.476;2024-01-30T06:51:58;102180.94;;;8.67;63.37
75585;BME280;64162;53.508;10.476;2024-01-30T06:54:24;102188.38;;;8.35;64.91
75585;BME280;64162;53.508;10.476;2024-01-30T06:56:51;102169.66;;;8.91;62.27
75585;BME280;64162;53.508;10.476;2024-01-30T06:59:17;102186.16;;;9.01;62.03
75585;BME280;64162;53.508;10.476;2024-01-30T07:01:44;102181.97;;;8.64;63.03
75585;BME280;64162;53.508;10.476;2024-01-30T07:04:10;102188.72;;;8.54;63.81
75585;BME280;64162;53.508;10.476;2024-01-30T07:06:37;102183.47;;;8.79;62.93
75585;BME280;64162;53.508;10.476;2024-01-30T07:09:04;102174.31;;;8.39;64.12
75585;BME280;64162;53.508;10.476;2024-01-30T07:11:31;102187.16;;;8.64;62.67
75585;BME280;64162;53.508;10.476;2024-01-30T07:13:58;102178.25;;;8.68;63.10
75585;BME280;64162;53.508;10.476;2024-01-30T07:16:25;102183.00;;;8.85;62.66
75585;BME280;64162;53.508;10.476;2024-01-30T07:18:52;102181.34;;;8.60;63.66
75585;BME280;64162;53.508;10.476;2024-01-30T07:21:19;102188.63;;;9.03;62.43
75585;BME280;64162;53.508;10.476;2024-01-30T07:23:48;102187.25;;;8.86;62.33
75585;BME280;64162;53.508;10.476;2024-01-30T07:26:15;102182.72;;;8.90;62.66
75585;BME280;64162;53.508;10.476;2024-01-30T07:28:42;102179.78;;;9.18;61.64
75585;BME280;64162;53.508;10.476;2024-01-30T07:31:10;102190.28;;;9.04;62.19
75585;BME280;64162;53.508;10.476;2024-01-30T07:33:36;102196.59;;;9.24;61.75
75585;BME280;64162;53.508;10.476;2024-01-30T07:36:03;102183.38;;;9.16;61.73
75585;BME280;64162;53.508;10.476;2024-01-30T07:38:33;102194.31;;;8.84;62.57
75585;BME280;64162;53.508;10.476;2024-01-30T07:40:59;102182.03;;;8.75;63.62
75585;BME280;64162;53.508;10.476;2024-01-30T07:43:26;102189.59;;;8.66;64.30
75585;BME280;64162;53.508;10.476;2024-01-30T07:45:52;102179.50;;;8.86;63.09
75585;BME280;64162;53.508;10.476;2024-01-30T07:48:19;102182.41;;;8.58;64.38
75585;BME280;64162;53.508;10.476;2024-01-30T07:50:46;102180.75;;;8.57;64.92
75585;BME280;64162;53.508;10.476;2024-01-30T07:53:12;102163.84;;;8.53;65.18
75585;BME280;64162;53.508;10.476;2024-01-30T07:55:39;102175.81;;;9.01;63.64
75585;BME280;64162;53.508;10.476;2024-01-30T07:58:06;102175.91;;;9.24;62.81
75585;BME280;64162;53.508;10.476;2024-01-30T08:00:32;102183.41;;;8.92;63.95
75585;BME280;64162;53.508;10.476;2024-01-30T08:02:59;102187.69;;;9.04;63.44
75585;BME280;64162;53.508;10.476;2024-01-30T08:05:26;102174.28;;;8.75;64.42
75585;BME280;64162;53.508;10.476;2024-01-30T08:07:52;102187.41;;;9.55;63.78
75585;BME280;64162;53.508;10.476;2024-01-30T08:10:20;102182.34;;;9.53;62.33
75585;BME280;64162;53.508;10.476;2024-01-30T08:12:46;102179.78;;;9.64;61.51
75585;BME280;64162;53.508;10.476;2024-01-30T08:15:13;102187.59;;;9.40;62.67
75585;BME280;64162;53.508;10.476;2024-01-30T08:17:40;102190.22;;;9.17;63.36
75585;BME280;64162;53.508;10.476;2024-01-30T08:20:07;102181.75;;;8.67;64.94
75585;BME280;64162;53.508;10.476;2024-01-30T08:22:34;102178.25;;;9.27;63.67
75585;BME280;64162;53.508;10.476;2024-01-30T08:25:01;102180.84;;;9.27;63.49
75585;BME280;64162;53.508;10.476;2024-01-30T08:27:28;102174.53;;;9.42;63.50
75585;BME280;64162;53.508;10.476;2024-01-30T08:29:54;102173.22;;;9.25;64.36
75585;BME280;64162;53.508;10.476;2024-01-30T08:32:21;102166.09;;;9.40;63.60
75585;BME280;64162;53.508;10.476;2024-01-30T08:34:47;102169.50;;;9.40;63.57
75585;BME280;64162;53.508;10.476;2024-01-30T08:37:14;102158.19;;;9.41;63.79
75585;BME280;64162;53.508;10.476;2024-01-30T08:39:43;102163.66;;;9.61;63.26
75585;BME280;64162;53.508;10.476;2024-01-30T08:42:10;102175.97;;;9.46;63.85
75585;BME280;64162;53.508;10.476;2024-01-30T08:44:36;102168.03;;;9.60;63.37
75585;BME280;64162;53.508;10.476;2024-01-30T08:47:03;102169.41;;;9.53;62.71
75585;BME280;64162;53.508;10.476;2024-01-30T08:49:30;102161.69;;;9.75;62.80
75585;BME280;64162;53.508;10.476;2024-01-30T08:51:57;102169.78;;;9.71;62.12
75585;BME280;64162;53.508;10.476;2024-01-30T08:54:24;102171.03;;;9.43;64.58
75585;BME280;64162;53.508;10.476;2024-01-30T08:56:53;102176.25;;;9.76;63.10
75585;BME280;64162;53.508;10.476;2024-01-30T08:59:19;102173.88;;;9.62;63.25
75585;BME280;64162;53.508;10.476;2024-01-30T09:01:46;102176.59;;;9.72;63.66
75585;BME280;64162;53.508;10.476;2024-01-30T09:04:15;102166.59;;;9.67;63.52
75585;BME280;64162;53.508;10.476;2024-01-30T09:06:41;102162.16;;;9.91;62.10
75585;BME280;64162;53.508;10.476;2024-01-30T09:09:08;102158.00;;;9.67;63.68
75585;BME280;64162;53.508;10.476;2024-01-30T09:11:35;102145.09;;;9.67;63.56
75585;BME280;64162;53.508;10.476;2024-01-30T09:14:02;102154.50;;;10.01;62.53
75585;BME280;64162;53.508;10.476;2024-01-30T09:16:28;102161.47;;;9.89;63.17
75585;BME280;64162;53.508;10.476;2024-01-30T09:18:55;102160.75;;;9.87;63.07
75585;BME280;64162;53.508;10.476;2024-01-30T09:21:22;102152.84;;;9.78;63.45
75585;BME280;64162;53.508;10.476;2024-01-30T09:23:48;102146.97;;;9.98;62.72
75585;BME280;64162;53.508;10.476;2024-01-30T09:26:15;102144.81;;;9.47;63.96
75585;BME280;64162;53.508;10.476;2024-01-30T09:28:41;102147.69;;;9.21;64.16
75585;BME280;64162;53.508;10.476;2024-01-30T09:31:12;102143.69;;;9.63;63.24
75585;BME280;64162;53.508;10.476;2024-01-30T09:33:38;102139.56;;;9.71;63.86
75585;BME280;64162;53.508;10.476;2024-01-30T09:36:06;102142.41;;;9.79;63.02
75585;BME280;64162;53.508;10.476;2024-01-30T09:38:32;102146.84;;;9.66;64.04
75585;BME280;64162;53.508;10.476;2024-01-30T09:41:00;102128.22;;;11.14;60.89
75585;BME280;64162;53.508;10.476;2024-01-30T09:43:33;102121.59;;;12.12;59.47
75585;BME280;64162;53.508;10.476;2024-01-30T09:46:02;102133.84;;;12.40;57.03
75585;BME280;64162;53.508;10.476;2024-01-30T09:48:30;102127.94;;;12.38;58.66
75585;BME280;64162;53.508;10.476;2024-01-30T09:50:57;102127.03;;;12.78;54.58
75585;BME280;64162;53.508;10.476;2024-01-30T09:53:24;102129.63;;;11.69;57.83
75585;BME280;64162;53.508;10.476;2024-01-30T09:55:52;102144.03;;;10.79;60.59
75585;BME280;64162;53.508;10.476;2024-01-30T09:58:18;102144.13;;;10.89;61.02
75585;BME280;64162;53.508;10.476;2024-01-30T10:00:45;102149.31;;;10.46;62.00
75585;BME280;64162;53.508;10.476;2024-01-30T10:03:11;102149.06;;;11.33;63.33
75585;BME280;64162;53.508;10.476;2024-01-30T10:05:41;102148.00;;;10.51;62.55
75585;BME280;64162;53.508;10.476;2024-01-30T10:08:09;102151.63;;;10.71;61.75
75585;BME280;64162;53.508;10.476;2024-01-30T10:10:35;102153.47;;;10.26;62.39
75585;BME280;64162;53.508;10.476;2024-01-30T10:13:02;102143.97;;;11.01;60.70
75585;BME280;64162;53.508;10.476;2024-01-30T10:15:29;102157.84;;;10.68;61.91
75585;BME280;64162;53.508;10.476;2024-01-30T10:17:56;102140.88;;;10.75;61.89
75585;BME280;64162;53.508;10.476;2024-01-30T10:20:24;102143.53;;;10.53;62.33
75585;BME280;64162;53.508;10.476;2024-01-30T10:22:51;102140.00;;;10.54;62.45
75585;BME280;64162;53.508;10.476;2024-01-30T10:25:18;102129.59;;;10.65;61.85
75585;BME280;64162;53.508;10.476;2024-01-30T10:27:46;102127.13;;;10.96;61.07
75585;BME280;64162;53.508;10.476;2024-01-30T10:30:13;102121.44;;;11.23;60.72
75585;BME280;64162;53.508;10.476;2024-01-30T10:32:40;102127.38;;;11.13;61.32
75585;BME280;64162;53.508;10.476;2024-01-30T10:35:06;102125.00;;;11.01;61.51
75585;BME280;64162;53.508;10.476;2024-01-30T10:37:33;102115.03;;;10.53;63.14
75585;BME280;64162;53.508;10.476;2024-01-30T10:40:03;102105.13;;;10.58;62.70
75585;BME280;64162;53.508;10.476;2024-01-30T10:42:32;102104.09;;;10.50;63.54
75585;BME280;64162;53.508;10.476;2024-01-30T10:45:09;102104.88;;;11.35;60.50
75585;BME280;64162;53.508;10.476;2024-01-30T10:47:43;102105.63;;;11.05;61.96
75585;BME280;64162;53.508;10.476;2024-01-30T10:50:10;102100.34;;;11.06;62.44
75585;BME280;64162;53.508;10.476;2024-01-30T10:52:37;102104.81;;;11.25;61.42
75585;BME280;64162;53.508;10.476;2024-01-30T10:55:05;102095.38;;;11.03;62.54
75585;BME280;64162;53.508;10.476;2024-01-30T10:57:35;102091.53;;;11.39;61.43
75585;BME280;64162;53.508;10.476;2024-01-30T11:00:07;102105.69;;;11.35;61.18
75585;BME280;64162;53.508;10.476;2024-01-30T11:02:41;102090.38;;;11.62;60.70
75585;BME280;64162;53.508;10.476;2024-01-30T11:05:09;102094.88;;;11.51;61.20
75585;BME280;64162;53.508;10.476;2024-01-30T11:07:39;102091.53;;;11.70;61.03
75585;BME280;64162;53.508;10.476;2024-01-30T11:10:06;102091.59;;;11.58;60.90
75585;BME280;64162;53.508;10.476;2024-01-30T11:12:39;102089.69;;;11.51;61.28
75585;BME280;64162;53.508;10.476;2024-01-30T11:15:12;102093.56;;;11.66;60.54
75585;BME280;64162;53.508;10.476;2024-01-30T11:20:16;102092.84;;;11.85;60.43
75585;BME280;64162;53.508;10.476;2024-01-30T11:22:45;102088.94;;;11.70;61.25
75585;BME280;64162;53.508;10.476;2024-01-30T11:25:16;102093.44;;;12.08;59.66
75585;BME280;64162;53.508;10.476;2024-01-30T11:27:44;102095.91;;;12.09;59.83
75585;BME280;64162;53.508;10.476;2024-01-30T11:30:31;102090.72;;;12.09;59.61
75585;BME280;64162;53.508;10.476;2024-01-30T11:33:02;102083.53;;;12.41;59.00
75585;BME280;64162;53.508;10.476;2024-01-30T11:35:32;102087.47;;;12.07;60.16
75585;BME280;64162;53.508;10.476;2024-01-30T11:38:00;102083.13;;;12.27;59.48
75585;BME280;64162;53.508;10.476;2024-01-30T11:40:28;102081.88;;;12.21;60.14
75585;BME280;64162;53.508;10.476;2024-01-30T11:42:56;102087.59;;;12.15;59.77
75585;BME280;64162;53.508;10.476;2024-01-30T11:45:23;102087.97;;;12.01;60.75
75585;BME280;64162;53.508;10.476;2024-01-30T11:47:49;102089.09;;;12.27;59.78
75585;BME280;64162;53.508;10.476;2024-01-30T11:50:16;102074.06;;;12.12;60.07
75585;BME280;64162;53.508;10.476;2024-01-30T11:52:43;102062.88;;;12.69;59.15
75585;BME280;64162;53.508;10.476;2024-01-30T11:55:10;102074.47;;;12.94;58.24
75585;BME280;64162;53.508;10.476;2024-01-30T11:57:39;102068.63;;;12.43;59.58
75585;BME280;64162;53.508;10.476;2024-01-30T12:00:06;102066.97;;;12.23;60.35
75585;BME280;64162;53.508;10.476;2024-01-30T12:02:37;102071.19;;;12.24;60.14
75585;BME280;64162;53.508;10.476;2024-01-30T12:05:06;102066.72;;;12.45;59.84
75585;BME280;64162;53.508;10.476;2024-01-30T12:07:33;102062.88;;;12.30;60.24
75585;BME280;64162;53.508;10.476;2024-01-30T12:10:00;102064.00;;;12.57;59.81
75585;BME280;64162;53.508;10.476;2024-01-30T12:12:28;102055.50;;;12.35;60.00
75585;BME280;64162;53.508;10.476;2024-01-30T12:14:56;102066.31;;;12.31;60.59
75585;BME280;64162;53.508;10.476;2024-01-30T12:17:26;102053.31;;;12.40;60.53
75585;BME280;64162;53.508;10.476;2024-01-30T12:22:36;102064.88;;;13.04;58.21
75585;BME280;64162;53.508;10.476;2024-01-30T12:25:04;102044.69;;;12.59;60.15
75585;BME280;64162;53.508;10.476;2024-01-30T12:27:31;102051.94;;;12.75;58.96
75585;BME280;64162;53.508;10.476;2024-01-30T12:29:58;102039.75;;;12.75;59.26
75585;BME280;64162;53.508;10.476;2024-01-30T12:32:24;102032.16;;;13.11;58.27
75585;BME280;64162;53.508;10.476;2024-01-30T12:34:55;102034.03;;;12.72;59.37
75585;BME280;64162;53.508;10.476;2024-01-30T12:37:22;102033.31;;;12.79;59.81
75585;BME280;64162;53.508;10.476;2024-01-30T12:39:51;102045.19;;;13.01;59.38
75585;BME280;64162;53.508;10.476;2024-01-30T12:42:20;102046.44;;;12.97;59.10
75585;BME280;64162;53.508;10.476;2024-01-30T12:44:50;102043.44;;;12.92;59.21
75585;BME280;64162;53.508;10.476;2024-01-30T12:47:17;102044.84;;;12.77;59.52
75585;BME280;64162;53.508;10.476;2024-01-30T12:49:44;102040.56;;;12.85;59.84
75585;BME280;64162;53.508;10.476;2024-01-30T12:52:11;102032.59;;;13.06;59.19